createdAt,value
2022-08-01T00:00:11.835Z,20.40
2022-08-01T00:02:46.359Z,20.40
2022-08-01T00:05:17.063Z,20.20
2022-08-01T00:07:46.638Z,20.10
2022-08-01T00:10:17.014Z,20.10
2022-08-01T00:13:05.642Z,20.00
2022-08-01T00:15:54.397Z,20.00
2022-08-01T00:18:24.781Z,20.00
2022-08-01T00:20:56.620Z,19.90
2022-08-01T00:23:25.377Z,19.90
2022-08-01T00:25:53.569Z,19.90
2022-08-01T00:28:22.072Z,19.90
2022-08-01T00:30:51.657Z,19.90
2022-08-01T00:33:21.204Z,19.80
2022-08-01T00:35:50.778Z,19.90
2022-08-01T00:38:18.974Z,19.90
2022-08-01T00:40:49.208Z,19.90
2022-08-01T00:43:17.740Z,20.00
2022-08-01T00:45:45.938Z,19.90
2022-08-01T00:48:14.163Z,19.90
2022-08-01T00:50:43.918Z,19.90
2022-08-01T00:53:18.506Z,19.90
2022-08-01T00:55:49.375Z,20.00
2022-08-01T00:58:17.773Z,19.90
2022-08-01T01:00:52.410Z,19.90
2022-08-01T01:06:47.047Z,20.00
2022-08-01T01:09:27.975Z,19.90
2022-08-01T01:12:08.895Z,19.90
2022-08-01T01:14:53.362Z,19.80
2022-08-01T01:17:40.686Z,19.80
2022-08-01T01:20:19.824Z,19.90
2022-08-01T01:23:00.552Z,19.80
2022-08-01T01:25:43.150Z,19.80
2022-08-01T01:28:19.006Z,19.80
2022-08-01T01:30:54.978Z,19.80
2022-08-01T01:33:26.181Z,19.70
2022-08-01T01:35:58.986Z,19.80
2022-08-01T01:38:42.919Z,19.70
2022-08-01T01:41:17.318Z,19.70
2022-08-01T01:43:50.902Z,19.60
2022-08-01T01:46:41.306Z,19.60
2022-08-01T01:49:13.612Z,19.60
2022-08-01T01:51:42.898Z,19.50
2022-08-01T01:55:10.647Z,19.30
2022-08-01T02:02:05.508Z,19.10
2022-08-01T02:04:42.912Z,19.10
2022-08-01T02:07:32.115Z,19.10
2022-08-01T02:12:51.510Z,18.90
2022-08-01T02:15:21.921Z,18.80
2022-08-01T02:17:55.808Z,18.70
2022-08-01T02:20:26.524Z,18.80
2022-08-01T02:23:04.355Z,18.70
2022-08-01T02:25:37.782Z,18.70
2022-08-01T02:28:12.609Z,18.60
2022-08-01T02:30:44.093Z,18.60
2022-08-01T02:33:20.427Z,18.60
2022-08-01T02:36:29.068Z,18.50
2022-08-01T02:38:46.638Z,18.50
2022-08-01T02:41:19.170Z,18.40
2022-08-01T02:44:00.550Z,18.40
2022-08-01T02:46:33.815Z,18.20
2022-08-01T02:49:07.995Z,18.30
2022-08-01T02:51:38.356Z,18.30
2022-08-01T02:54:10.139Z,18.30
2022-08-01T02:56:41.803Z,18.30
2022-08-01T02:59:15.352Z,18.20
2022-08-01T03:01:46.540Z,18.10
2022-08-01T03:04:19.970Z,17.90
2022-08-01T03:06:51.231Z,18.00
2022-08-01T03:09:30.125Z,17.90
2022-08-01T03:12:05.232Z,17.90
2022-08-01T03:14:40.831Z,17.90
2022-08-01T03:17:12.518Z,17.90
2022-08-01T03:19:44.853Z,17.90
2022-08-01T03:22:16.249Z,18.00
2022-08-01T03:24:48.280Z,18.10
2022-08-01T03:27:22.692Z,18.10
2022-08-01T03:29:55.886Z,18.20
2022-08-01T03:32:27.021Z,18.20
2022-08-01T03:34:56.628Z,18.10
2022-08-01T03:37:31.652Z,18.10
2022-08-01T03:40:07.109Z,18.20
2022-08-01T03:42:40.270Z,18.10
2022-08-01T03:45:22.291Z,18.20
2022-08-01T03:47:57.492Z,18.20
2022-08-01T03:50:27.696Z,18.10
2022-08-01T03:52:58.865Z,18.20
2022-08-01T03:55:29.486Z,18.30
2022-08-01T03:58:00.389Z,18.30
2022-08-01T04:00:29.789Z,18.40
2022-08-01T04:02:59.852Z,18.40
2022-08-01T04:05:38.231Z,18.40
2022-08-01T04:08:12.183Z,18.50
2022-08-01T04:10:40.974Z,18.60
2022-08-01T04:13:09.213Z,18.60
2022-08-01T04:15:42.611Z,18.60
2022-08-01T04:18:10.975Z,18.60
2022-08-01T04:21:34.616Z,18.60
2022-08-01T04:24:09.665Z,18.60
2022-08-01T04:26:46.072Z,18.40
2022-08-01T04:29:18.538Z,18.50
2022-08-01T04:32:01.088Z,18.60
2022-08-01T04:37:42.119Z,18.70
2022-08-01T04:40:44.241Z,18.60
2022-08-01T04:43:15.247Z,18.50
2022-08-01T04:45:45.819Z,18.60
2022-08-01T04:48:22.686Z,18.60
2022-08-01T04:50:53.074Z,18.80
2022-08-01T04:53:47.595Z,18.80
2022-08-01T04:56:27.615Z,18.80
2022-08-01T04:59:19.703Z,18.80
2022-08-01T05:01:58.032Z,18.80
2022-08-01T05:04:35.402Z,19.10
2022-08-01T05:10:27.102Z,19.20
2022-08-01T05:12:58.121Z,19.10
2022-08-01T05:15:28.246Z,19.30
2022-08-01T05:17:57.925Z,19.30
2022-08-01T05:20:26.316Z,19.30
2022-08-01T05:22:55.188Z,19.50
2022-08-01T05:28:32.783Z,19.60
2022-08-01T05:31:18.504Z,19.60
2022-08-01T05:34:15.286Z,19.50
2022-08-01T05:37:15.264Z,19.60
2022-08-01T05:39:46.854Z,19.60
2022-08-01T05:42:38.499Z,19.70
2022-08-01T05:45:29.524Z,19.80
2022-08-01T05:48:18.020Z,19.90
2022-08-01T05:50:56.769Z,20.00
2022-08-01T06:00:34.167Z,20.20
2022-08-01T06:03:58.841Z,20.20
2022-08-01T06:07:16.527Z,20.20
2022-08-01T06:10:15.445Z,20.30
2022-08-01T06:13:32.110Z,20.30
2022-08-01T06:19:35.074Z,20.30
2022-08-01T06:22:04.776Z,20.30
2022-08-01T06:24:35.845Z,20.30
2022-08-01T06:27:22.436Z,20.40
2022-08-01T06:29:54.478Z,20.40
2022-08-01T06:39:49.639Z,20.40
2022-08-01T06:43:00.696Z,20.50
2022-08-01T06:52:18.596Z,20.50
2022-08-01T07:02:09.616Z,20.90
2022-08-01T07:04:38.359Z,20.60
2022-08-01T07:07:07.440Z,20.70
2022-08-01T07:09:35.700Z,20.70
2022-08-01T07:12:17.690Z,20.60
2022-08-01T07:14:47.324Z,20.70
2022-08-01T07:17:17.645Z,20.70
2022-08-01T07:19:51.547Z,20.70
2022-08-01T07:22:23.580Z,20.60
2022-08-01T07:24:54.556Z,20.50
2022-08-01T07:27:26.094Z,20.50
2022-08-01T07:34:27.166Z,20.80
2022-08-01T07:36:55.886Z,20.90
2022-08-01T07:39:24.916Z,21.80
2022-08-01T07:49:23.355Z,22.10
2022-08-01T07:52:02.450Z,22.20
2022-08-01T07:54:52.164Z,22.10
2022-08-01T07:57:24.374Z,21.90
2022-08-01T07:59:52.931Z,22.60
2022-08-01T08:02:23.921Z,23.90
2022-08-01T08:05:58.443Z,23.60
2022-08-01T08:08:35.142Z,24.00
2022-08-01T08:11:51.275Z,26.60
2022-08-01T08:14:55.584Z,28.80
2022-08-01T08:21:06.899Z,23.90
2022-08-01T08:24:09.772Z,25.60
2022-08-01T08:30:26.483Z,28.10
2022-08-01T08:33:11.214Z,26.50
2022-08-01T08:36:00.356Z,24.10
2022-08-01T08:38:30.209Z,23.60
2022-08-01T08:41:49.964Z,23.50
2022-08-01T08:45:12.119Z,23.40
2022-08-01T08:48:18.384Z,23.70
2022-08-01T08:50:50.029Z,23.70
2022-08-01T08:53:46.460Z,25.50
2022-08-01T08:56:31.998Z,25.80
2022-08-01T08:59:22.980Z,25.10
2022-08-01T09:22:29.856Z,23.80
2022-08-01T09:31:53.005Z,23.60
2022-08-01T09:34:28.353Z,23.10
2022-08-01T09:37:14.133Z,23.30
2022-08-01T09:39:44.710Z,23.60
2022-08-01T09:42:29.258Z,23.90
2022-08-01T09:44:57.957Z,24.10
2022-08-01T09:47:40.484Z,23.90
2022-08-01T09:50:11.282Z,23.90
2022-08-01T09:53:02.735Z,23.80
2022-08-01T09:55:32.067Z,23.50
2022-08-01T09:58:37.797Z,24.00
2022-08-01T10:04:35.482Z,24.30
2022-08-01T10:10:19.161Z,24.70
2022-08-01T10:12:58.855Z,24.70
2022-08-01T10:16:00.222Z,24.50
2022-08-01T10:18:37.348Z,24.30
2022-08-01T10:21:10.915Z,24.50
2022-08-01T10:27:38.427Z,25.10
2022-08-01T10:30:50.321Z,25.50
2022-08-01T10:33:50.630Z,26.00
2022-08-01T10:36:18.540Z,26.00
2022-08-01T10:43:01.656Z,25.50
2022-08-01T10:48:47.092Z,25.20
2022-08-01T10:51:54.465Z,24.90
2022-08-01T10:55:20.911Z,25.10
2022-08-01T10:58:44.109Z,25.40
2022-08-01T11:01:26.584Z,25.80
2022-08-01T11:04:16.427Z,25.80
2022-08-01T11:07:34.210Z,25.70
2022-08-01T11:10:36.104Z,25.60
2022-08-01T11:13:55.351Z,25.50
2022-08-01T11:16:40.732Z,25.40
2022-08-01T11:19:11.831Z,25.30
2022-08-01T11:22:05.125Z,25.30
2022-08-01T11:24:59.171Z,25.10
2022-08-01T11:29:17.827Z,25.50
2022-08-01T11:34:55.516Z,25.30
2022-08-01T11:37:57.885Z,25.40
2022-08-01T11:40:40.004Z,25.60
2022-08-01T11:43:45.149Z,25.40
2022-08-01T11:46:18.223Z,25.30
2022-08-01T11:48:48.736Z,25.30
2022-08-01T11:51:23.941Z,25.40
2022-08-01T11:53:53.967Z,25.50
2022-08-01T11:56:30.504Z,25.70
2022-08-01T11:59:08.318Z,26.00
2022-08-01T12:01:43.994Z,26.00
2022-08-01T12:04:12.866Z,25.70
2022-08-01T12:06:46.172Z,25.90
2022-08-01T12:09:41.000Z,26.20
2022-08-01T12:22:51.747Z,25.30
2022-08-01T12:25:32.038Z,25.50
2022-08-01T12:34:32.756Z,25.90
2022-08-01T12:44:19.527Z,26.30
2022-08-01T12:46:57.263Z,25.80
2022-08-01T12:49:26.857Z,25.90
2022-08-01T12:51:57.714Z,26.10
2022-08-01T12:54:27.670Z,26.50
2022-08-01T12:57:00.192Z,26.70
2022-08-01T12:59:30.024Z,27.10
2022-08-01T13:03:01.213Z,27.30
2022-08-01T13:09:33.323Z,26.50
2022-08-01T13:12:16.194Z,26.70
2022-08-01T13:17:54.687Z,27.20
2022-08-01T13:30:28.045Z,26.60
2022-08-01T13:39:55.578Z,26.20
2022-08-01T13:42:33.424Z,26.50
2022-08-01T13:45:11.877Z,26.60
2022-08-01T13:48:12.020Z,26.40
2022-08-01T13:51:22.317Z,26.60
2022-08-01T13:54:18.944Z,26.40
2022-08-01T14:10:18.586Z,25.90
2022-08-01T14:12:49.861Z,25.70
2022-08-01T14:15:38.047Z,25.80
2022-08-01T14:21:28.509Z,25.90
2022-08-01T14:24:15.613Z,26.30
2022-08-01T14:26:46.762Z,26.60
2022-08-01T14:30:00.006Z,26.50
2022-08-01T14:32:31.595Z,26.80
2022-08-01T14:34:59.933Z,27.00
2022-08-01T14:38:15.186Z,27.00
2022-08-01T14:47:42.658Z,26.40
2022-08-01T14:50:17.240Z,26.30
2022-08-01T14:52:45.772Z,26.20
2022-08-01T14:55:17.682Z,26.20
2022-08-01T14:57:54.290Z,26.40
2022-08-01T15:00:37.554Z,26.30
2022-08-01T15:03:11.710Z,26.40
2022-08-01T15:05:41.658Z,26.20
2022-08-01T15:08:15.323Z,26.40
2022-08-01T15:10:53.694Z,26.50
2022-08-01T15:13:23.766Z,26.50
2022-08-01T15:15:59.765Z,26.40
2022-08-01T15:18:52.132Z,26.20
2022-08-01T15:21:42.045Z,26.30
2022-08-01T15:24:57.412Z,26.30
2022-08-01T15:27:42.041Z,26.30
2022-08-01T15:30:44.584Z,26.60
2022-08-01T15:33:45.276Z,26.50
2022-08-01T15:36:19.415Z,26.60
2022-08-01T15:38:56.349Z,26.50
2022-08-01T15:41:30.178Z,26.60
2022-08-01T15:44:07.624Z,26.50
2022-08-01T15:47:16.533Z,26.50
2022-08-01T15:49:46.514Z,26.40
2022-08-01T15:52:33.041Z,26.40
2022-08-01T16:04:55.445Z,25.90
2022-08-01T16:08:01.261Z,26.00
2022-08-01T16:10:58.737Z,26.00
2022-08-01T16:13:40.635Z,26.00
2022-08-01T16:16:10.181Z,26.10
2022-08-01T16:18:47.475Z,25.90
2022-08-01T16:21:35.506Z,25.90
2022-08-01T16:24:28.312Z,25.90
2022-08-01T16:27:19.172Z,25.80
2022-08-01T16:30:03.295Z,25.80
2022-08-01T16:32:41.172Z,25.80
2022-08-01T16:35:12.097Z,26.00
2022-08-01T16:38:25.112Z,26.10
2022-08-01T16:41:48.915Z,26.10
2022-08-01T16:48:02.043Z,26.00
2022-08-01T16:50:32.198Z,25.70
2022-08-01T16:53:27.857Z,25.60
2022-08-01T16:56:05.982Z,25.60
2022-08-01T16:58:45.864Z,25.50
2022-08-01T17:01:58.817Z,25.30
2022-08-01T17:10:52.246Z,25.30
2022-08-01T17:13:23.412Z,25.40
2022-08-01T17:15:53.814Z,25.20
2022-08-01T17:18:22.295Z,25.40
2022-08-01T17:21:09.831Z,25.40
2022-08-01T17:23:45.826Z,25.40
2022-08-01T17:26:14.253Z,25.40
2022-08-01T17:28:50.137Z,25.30
2022-08-01T17:31:27.109Z,25.30
2022-08-01T17:33:57.485Z,25.20
2022-08-01T17:36:29.063Z,25.20
2022-08-01T17:39:35.197Z,25.00
2022-08-01T17:42:36.169Z,25.00
2022-08-01T17:48:45.960Z,25.00
2022-08-01T17:52:21.832Z,24.90
2022-08-01T17:55:03.891Z,24.70
2022-08-01T18:07:13.371Z,24.20
2022-08-01T18:09:46.720Z,24.20
2022-08-01T18:12:15.533Z,24.20
2022-08-01T18:14:44.110Z,24.10
2022-08-01T18:17:15.272Z,24.00
2022-08-01T18:19:46.722Z,24.00
2022-08-01T18:22:32.788Z,23.90
2022-08-01T18:25:03.917Z,23.70
2022-08-01T18:28:29.206Z,23.60
2022-08-01T18:30:34.603Z,23.50
2022-08-01T18:33:03.935Z,23.50
2022-08-01T18:35:52.443Z,23.40
2022-08-01T18:38:26.370Z,23.40
2022-08-01T18:41:00.310Z,23.20
2022-08-01T18:43:38.327Z,23.20
2022-08-01T18:46:12.684Z,23.10
2022-08-01T18:48:46.045Z,23.10
2022-08-01T18:51:51.823Z,23.10
2022-08-01T18:54:30.614Z,23.00
2022-08-01T18:57:15.353Z,22.80
2022-08-01T19:00:17.920Z,22.70
2022-08-01T19:09:52.967Z,22.40
2022-08-01T19:12:37.310Z,22.30
2022-08-01T19:15:12.127Z,22.20
2022-08-01T19:17:41.330Z,22.20
2022-08-01T19:20:10.734Z,22.20
2022-08-01T19:22:38.939Z,22.20
2022-08-01T19:25:10.807Z,22.20
2022-08-01T19:27:45.347Z,22.20
2022-08-01T19:30:14.412Z,22.10
2022-08-01T19:32:43.901Z,22.10
2022-08-01T19:35:14.007Z,22.00
2022-08-01T19:37:48.831Z,22.10
2022-08-01T19:40:27.789Z,22.00
2022-08-01T19:42:57.726Z,22.00
2022-08-01T19:45:30.369Z,22.00
2022-08-01T19:48:02.214Z,21.90
2022-08-01T19:50:33.583Z,21.80
2022-08-01T19:53:04.922Z,21.80
2022-08-01T19:55:39.450Z,21.80
2022-08-01T19:58:26.429Z,21.70
2022-08-01T20:00:56.163Z,21.60
2022-08-01T20:03:32.700Z,21.50
2022-08-01T20:06:03.065Z,21.50
2022-08-01T20:08:35.912Z,21.40
2022-08-01T20:11:11.842Z,21.40
2022-08-01T20:13:42.616Z,21.30
2022-08-01T20:16:10.853Z,21.30
2022-08-01T20:18:41.683Z,21.30
2022-08-01T20:21:14.626Z,21.20
2022-08-01T20:23:47.356Z,21.20
2022-08-01T20:29:23.663Z,21.10
2022-08-01T20:32:00.818Z,21.10
2022-08-01T20:34:58.197Z,20.90
2022-08-01T20:38:03.658Z,20.90
2022-08-01T20:40:27.209Z,20.90
2022-08-01T20:42:58.747Z,20.80
2022-08-01T20:45:41.908Z,20.80
2022-08-01T20:48:17.429Z,20.70
2022-08-01T20:51:05.509Z,20.70
2022-08-01T20:53:36.914Z,20.60
2022-08-01T20:56:16.529Z,20.60
2022-08-01T20:59:00.087Z,20.60
2022-08-01T21:01:40.274Z,20.60
2022-08-01T21:04:32.401Z,20.70
2022-08-01T21:07:10.757Z,20.70
2022-08-01T21:09:48.344Z,20.60
2022-08-01T21:12:29.069Z,20.60
2022-08-01T21:15:02.870Z,20.50
2022-08-01T21:17:52.039Z,20.50
2022-08-01T21:20:21.796Z,20.50
2022-08-01T21:23:19.281Z,20.40
2022-08-01T21:25:51.003Z,20.30
2022-08-01T21:29:08.810Z,20.40
2022-08-01T21:32:40.075Z,20.30
2022-08-01T21:42:06.475Z,20.40
2022-08-01T21:44:45.892Z,20.40
2022-08-01T21:47:20.776Z,20.40
2022-08-01T21:49:49.249Z,20.40
2022-08-01T21:52:21.620Z,20.40
2022-08-01T21:55:34.783Z,20.30
2022-08-01T21:58:38.194Z,20.30
2022-08-01T22:01:10.573Z,20.30
2022-08-01T22:03:55.564Z,20.30
2022-08-01T22:06:26.185Z,20.20
2022-08-01T22:08:59.651Z,20.20
2022-08-01T22:11:31.532Z,20.30
2022-08-01T22:14:04.982Z,20.20
2022-08-01T22:16:34.742Z,20.20
2022-08-01T22:19:04.316Z,20.20
2022-08-01T22:21:34.602Z,20.20
2022-08-01T22:24:05.190Z,20.20
2022-08-01T22:26:38.820Z,20.10
2022-08-01T22:29:10.394Z,20.10
2022-08-01T22:31:40.875Z,20.10
2022-08-01T22:34:10.786Z,20.10
2022-08-01T22:36:39.196Z,20.10
2022-08-01T22:39:10.047Z,20.10
2022-08-01T22:42:02.007Z,20.00
2022-08-01T22:44:55.363Z,20.00
2022-08-01T22:47:50.542Z,20.00
2022-08-01T22:50:36.098Z,19.90
2022-08-01T22:53:24.710Z,19.90
2022-08-01T22:59:20.124Z,19.80
2022-08-01T23:01:54.553Z,19.80
2022-08-01T23:04:56.127Z,19.70
2022-08-01T23:07:28.024Z,19.60
2022-08-01T23:10:00.736Z,19.60
2022-08-01T23:12:32.178Z,19.50
2022-08-01T23:15:04.659Z,19.50
2022-08-01T23:17:36.275Z,19.40
2022-08-01T23:20:11.724Z,19.40
2022-08-01T23:22:40.895Z,19.30
2022-08-01T23:25:15.107Z,19.30
2022-08-01T23:27:51.206Z,19.30
2022-08-01T23:30:34.930Z,19.30
2022-08-01T23:33:10.810Z,19.20
2022-08-01T23:35:45.329Z,19.30
2022-08-01T23:38:20.760Z,19.20
2022-08-01T23:40:50.211Z,19.30
2022-08-01T23:43:25.449Z,19.20
2022-08-01T23:46:02.126Z,19.10
2022-08-01T23:48:35.395Z,19.10
2022-08-01T23:51:04.218Z,19.10
2022-08-01T23:53:33.710Z,19.00
2022-08-01T23:56:06.448Z,19.10
2022-08-01T23:58:35.809Z,19.00
